Time;durP1;ratioP1;P1;durP2;ratioP2;P2;SDS_P1;SDS_P2;PMS_P1;PMS_P2;Temp;Humidity;BMP_temperature;BMP_pressure;BME280_temperature;BME280_humidity;BME280_pressure;Samples;Min_cycle;Max_cycle;Signal;HPM_P1;HPM_P2
2022/01/26 00:00:55;;;;;;;12.00;6.93;;;4.70;99.90;;;;;;6217452;23;20172;-64
2022/01/26 00:06:09;;;;;;;15.48;7.88;;;4.70;99.90;;;;;;6217111;23;20461;-64
2022/01/26 00:08:36;;;;;;;11.73;6.82;;;4.60;99.90;;;;;;6217845;23;20130;-64
2022/01/26 00:11:02;;;;;;;12.73;7.28;;;4.60;99.90;;;;;;6217077;23;20152;-64
2022/01/26 00:13:28;;;;;;;11.05;6.07;;;4.60;99.90;;;;;;6217202;23;20142;-64
2022/01/26 00:15:54;;;;;;;10.50;6.18;;;4.60;99.90;;;;;;6217151;23;20145;-64
2022/01/26 00:18:22;;;;;;;15.73;6.00;;;4.60;99.90;;;;;;6217270;23;20160;-64
2022/01/26 00:20:55;;;;;;;9.55;5.38;;;4.60;99.90;;;;;;6217211;23;20172;-64
2022/01/26 00:23:48;;;;;;;11.65;5.97;;;4.50;99.90;;;;;;6217402;23;20208;-64
2022/01/26 00:26:22;;;;;;;10.45;5.32;;;4.50;99.90;;;;;;6216764;23;20573;-64
2022/01/26 00:33:06;;;;;;;11.43;5.65;;;4.50;99.90;;;;;;6217021;23;20167;-64
2022/01/26 00:39:59;;;;;;;11.20;4.82;;;4.60;99.90;;;;;;6217032;23;20195;-63
2022/01/26 00:42:26;;;;;;;11.07;5.18;;;4.60;99.90;;;;;;6217221;23;20145;-63
2022/01/26 00:44:52;;;;;;;9.40;5.15;;;4.60;99.90;;;;;;6217046;23;20160;-63
2022/01/26 00:47:17;;;;;;;9.95;5.20;;;4.50;99.90;;;;;;6217319;23;20141;-63
2022/01/26 00:49:43;;;;;;;11.05;5.45;;;4.60;99.90;;;;;;6217258;23;20145;-63
2022/01/26 00:52:13;;;;;;;11.20;4.68;;;4.60;99.90;;;;;;6216704;23;20168;-63
2022/01/26 00:54:39;;;;;;;12.48;5.32;;;4.60;99.90;;;;;;6217216;23;20144;-63
2022/01/26 00:57:04;;;;;;;11.55;5.93;;;4.60;99.90;;;;;;6217446;23;20150;-64
2022/01/26 00:59:30;;;;;;;10.65;5.43;;;4.60;99.90;;;;;;6216757;23;20149;-63
2022/01/26 01:01:56;;;;;;;11.52;5.63;;;4.60;99.90;;;;;;6216602;23;20479;-63
2022/01/26 01:04:22;;;;;;;13.73;6.63;;;4.60;99.90;;;;;;6216963;23;20224;-63
2022/01/26 01:06:53;;;;;;;10.98;5.47;;;4.60;99.90;;;;;;6216518;23;20155;-63
2022/01/26 01:09:21;;;;;;;13.13;5.88;;;4.60;99.90;;;;;;6217140;23;20137;-64
2022/01/26 01:11:46;;;;;;;12.18;5.68;;;4.60;99.90;;;;;;6216856;23;20223;-64
2022/01/26 01:14:12;;;;;;;8.93;4.90;;;4.60;99.90;;;;;;6216673;23;20560;-64
2022/01/26 01:16:38;;;;;;;13.50;6.68;;;4.60;99.90;;;;;;6216474;23;20561;-64
2022/01/26 01:19:27;;;;;;;14.40;6.05;;;4.60;99.90;;;;;;6216852;23;20249;-64
2022/01/26 01:30:01;;;;;;;13.70;6.78;;;4.50;99.90;;;;;;6216578;23;20557;-63
2022/01/26 01:32:36;;;;;;;13.32;6.57;;;4.50;99.90;;;;;;6216654;23;20125;-63
2022/01/26 01:35:07;;;;;;;16.77;7.25;;;4.60;99.90;;;;;;6216810;23;20227;-63
2022/01/26 01:37:32;;;;;;;14.30;6.75;;;4.50;99.90;;;;;;6216679;23;20144;-63
2022/01/26 01:39:58;;;;;;;14.57;6.70;;;4.50;99.90;;;;;;6216380;23;20184;-63
2022/01/26 01:42:23;;;;;;;13.60;6.25;;;4.60;99.90;;;;;;6216258;23;20143;-64
2022/01/26 01:44:49;;;;;;;16.63;7.55;;;4.50;99.90;;;;;;6216347;23;20144;-63
2022/01/26 01:47:14;;;;;;;16.13;7.70;;;4.50;99.90;;;;;;6216245;23;20148;-64
2022/01/26 01:49:40;;;;;;;14.43;6.82;;;4.50;99.90;;;;;;6216290;23;20148;-63
2022/01/26 01:52:12;;;;;;;12.63;6.43;;;4.50;99.90;;;;;;6216271;23;20144;-63
2022/01/26 01:54:40;;;;;;;12.38;6.65;;;4.50;99.90;;;;;;6216564;23;20137;-64
2022/01/26 01:57:06;;;;;;;13.32;6.47;;;4.50;99.90;;;;;;6217045;23;20180;-63
2022/01/26 01:59:32;;;;;;;15.02;6.13;;;4.50;99.90;;;;;;6217226;23;20494;-63
2022/01/26 02:02:00;;;;;;;13.00;6.28;;;4.50;99.90;;;;;;6216392;23;20176;-63
2022/01/26 02:04:25;;;;;;;13.38;6.00;;;4.50;99.90;;;;;;6216220;23;20145;-63
2022/01/26 02:06:51;;;;;;;12.10;5.80;;;4.50;99.90;;;;;;6216461;23;20446;-63
2022/01/26 02:09:16;;;;;;;13.07;6.20;;;4.50;99.90;;;;;;6216556;23;20443;-63
2022/01/26 02:11:47;;;;;;;12.90;6.00;;;4.50;99.90;;;;;;6216356;23;20199;-63
2022/01/26 02:14:19;;;;;;;15.65;6.75;;;4.40;99.90;;;;;;6216691;23;20181;-63
2022/01/26 02:16:56;;;;;;;11.45;5.90;;;4.40;99.90;;;;;;6216484;23;20129;-63
2022/01/26 02:49:22;;;;;;;10.85;5.82;;;4.30;99.90;;;;;;6216186;23;20144;-64
2022/01/26 02:52:41;;;;;;;13.35;6.10;;;4.20;99.90;;;;;;6216216;23;20288;-64
2022/01/26 02:55:17;;;;;;;11.32;6.05;;;4.20;99.90;;;;;;6216361;23;20430;-64
2022/01/26 02:58:02;;;;;;;11.43;5.30;;;4.20;99.90;;;;;;6216303;23;20130;-63
2022/01/26 03:00:41;;;;;;;12.20;5.80;;;4.20;99.90;;;;;;6215811;23;20200;-63
2022/01/26 03:03:30;;;;;;;14.05;7.57;;;4.20;99.90;;;;;;6215689;23;20398;-64
2022/01/26 03:06:03;;;;;;;14.15;6.47;;;4.20;99.90;;;;;;6215897;23;20145;-64
2022/01/26 03:08:34;;;;;;;14.02;6.75;;;4.20;99.90;;;;;;6216388;23;20133;-63
2022/01/26 03:11:07;;;;;;;11.70;5.68;;;4.20;99.90;;;;;;6216261;23;20144;-63
2022/01/26 03:13:34;;;;;;;16.55;7.43;;;4.20;99.90;;;;;;6216198;23;20133;-63
2022/01/26 03:16:08;;;;;;;11.90;6.18;;;4.20;99.90;;;;;;6217879;23;20155;-64
2022/01/26 03:21:48;;;;;;;14.55;6.47;;;4.20;99.90;;;;;;6096748;23;20200;-64
2022/01/26 03:29:56;;;;;;;13.80;6.45;;;4.30;99.90;;;;;;6217824;23;20429;-65
2022/01/26 03:32:51;;;;;;;12.15;6.03;;;4.30;99.90;;;;;;6217895;23;20125;-64
2022/01/26 03:35:19;;;;;;;14.35;6.72;;;4.30;99.90;;;;;;6217317;23;20160;-63
2022/01/26 03:37:52;;;;;;;11.55;6.00;;;4.30;99.90;;;;;;6193219;23;20653;-64
2022/01/26 03:40:18;;;;;;;14.85;6.28;;;4.20;99.90;;;;;;6217596;23;20189;-63
2022/01/26 03:42:45;;;;;;;16.13;6.65;;;4.30;99.90;;;;;;6222002;23;20140;-64
2022/01/26 03:45:10;;;;;;;15.23;6.68;;;4.30;99.90;;;;;;6227321;23;20153;-65
2022/01/26 03:47:36;;;;;;;14.15;6.75;;;4.30;99.90;;;;;;6191324;23;20246;-65
2022/01/26 03:50:01;;;;;;;15.07;6.15;;;4.30;99.90;;;;;;6217416;23;20148;-65
2022/01/26 03:52:27;;;;;;;14.00;6.82;;;4.30;99.90;;;;;;6217320;23;20380;-65
2022/01/26 03:54:52;;;;;;;13.15;5.85;;;4.30;99.90;;;;;;6217646;23;20197;-65
2022/01/26 03:57:18;;;;;;;17.58;6.95;;;4.30;99.90;;;;;;6217975;23;20145;-65
2022/01/26 03:59:44;;;;;;;14.82;6.03;;;4.30;99.90;;;;;;6218252;23;20155;-65
2022/01/26 04:02:09;;;;;;;14.45;6.28;;;4.30;99.90;;;;;;6217364;23;20145;-65
2022/01/26 04:04:43;;;;;;;11.20;5.75;;;4.30;99.90;;;;;;6217402;23;20176;-65
2022/01/26 04:07:08;;;;;;;10.68;5.50;;;4.30;99.90;;;;;;6221229;23;20133;-62
2022/01/26 04:09:34;;;;;;;12.65;6.80;;;4.30;99.90;;;;;;6217680;23;20443;-63
2022/01/26 04:12:00;;;;;;;11.75;5.80;;;4.30;99.90;;;;;;6217398;23;20156;-63
2022/01/26 04:14:29;;;;;;;12.38;5.97;;;4.30;99.90;;;;;;6217432;23;20148;-63
2022/01/26 04:16:55;;;;;;;11.38;4.95;;;4.30;99.90;;;;;;6217461;23;20149;-63
2022/01/26 04:19:21;;;;;;;12.13;6.10;;;4.30;99.90;;;;;;6217125;23;20164;-63
2022/01/26 04:24:19;;;;;;;11.63;6.20;;;4.30;99.90;;;;;;6217445;23;20145;-64
2022/01/26 04:26:54;;;;;;;11.65;5.60;;;4.40;99.90;;;;;;6217602;23;20160;-63
2022/01/26 04:29:25;;;;;;;11.95;5.55;;;4.40;99.90;;;;;;6217654;23;20137;-63
2022/01/26 04:31:51;;;;;;;12.20;5.68;;;4.40;99.90;;;;;;6217436;23;20179;-64
2022/01/26 04:34:17;;;;;;;15.88;5.70;;;4.40;99.90;;;;;;6217149;23;20469;-63
2022/01/26 04:36:50;;;;;;;11.68;5.43;;;4.40;99.90;;;;;;6218134;23;20145;-63
2022/01/26 04:39:21;;;;;;;11.77;6.18;;;4.40;99.90;;;;;;6217262;23;20145;-63
2022/01/26 04:41:52;;;;;;;8.55;4.78;;;4.40;99.90;;;;;;6217456;23;20172;-64
2022/01/26 04:44:24;;;;;;;12.13;5.32;;;4.40;99.90;;;;;;6217388;23;20125;-63
2022/01/26 04:46:50;;;;;;;11.30;5.15;;;4.40;99.90;;;;;;6217429;23;20216;-63
2022/01/26 04:49:16;;;;;;;12.15;5.72;;;4.40;99.90;;;;;;6216966;23;20148;-63
2022/01/26 04:51:41;;;;;;;11.73;5.28;;;4.40;99.90;;;;;;6217080;23;20145;-63
2022/01/26 04:54:07;;;;;;;11.55;5.70;;;4.40;99.90;;;;;;6217538;23;20163;-62
2022/01/26 04:56:32;;;;;;;11.02;5.10;;;4.40;99.90;;;;;;6216920;23;20141;-62
2022/01/26 04:58:58;;;;;;;11.95;5.75;;;4.40;99.90;;;;;;6216755;23;20145;-62
2022/01/26 05:01:23;;;;;;;11.13;5.60;;;4.40;99.90;;;;;;6216706;23;20165;-62
2022/01/26 05:03:49;;;;;;;9.90;5.50;;;4.40;99.90;;;;;;6216652;23;20414;-61
2022/01/26 05:06:14;;;;;;;10.85;5.25;;;4.40;99.90;;;;;;6216777;23;20137;-62
2022/01/26 05:08:40;;;;;;;11.57;5.57;;;4.40;99.90;;;;;;6217190;23;20136;-61
2022/01/26 05:11:07;;;;;;;10.05;5.07;;;4.40;99.90;;;;;;6216957;23;20149;-62
2022/01/26 05:13:33;;;;;;;13.43;5.15;;;4.40;99.90;;;;;;6217654;23;20141;-61
2022/01/26 05:15:58;;;;;;;10.77;5.30;;;4.40;99.90;;;;;;6216994;23;20591;-61
2022/01/26 05:18:24;;;;;;;12.52;5.63;;;4.40;99.90;;;;;;6216540;23;20153;-61
2022/01/26 05:20:51;;;;;;;12.77;5.32;;;4.40;99.90;;;;;;6216872;23;20177;-61
2022/01/26 05:23:16;;;;;;;11.60;4.85;;;4.40;99.90;;;;;;6217198;23;20432;-61
2022/01/26 05:25:42;;;;;;;12.60;5.47;;;4.40;99.90;;;;;;6217304;23;20136;-61
2022/01/26 05:28:07;;;;;;;12.20;5.28;;;4.40;99.90;;;;;;6216320;23;20145;-61
2022/01/26 05:30:33;;;;;;;11.35;5.68;;;4.40;99.90;;;;;;6216565;23;20145;-61
2022/01/26 05:32:58;;;;;;;11.73;4.72;;;4.40;99.90;;;;;;6216564;23;20457;-61
2022/01/26 05:35:24;;;;;;;13.77;4.85;;;4.40;99.90;;;;;;6216790;23;20484;-60
2022/01/26 05:37:49;;;;;;;10.48;5.07;;;4.40;99.90;;;;;;6216740;23;20149;-62
2022/01/26 05:40:15;;;;;;;9.52;4.90;;;4.40;99.90;;;;;;6190605;23;20193;-61
2022/01/26 05:42:41;;;;;;;10.60;5.20;;;4.40;99.90;;;;;;6216595;23;20452;-60
2022/01/26 05:45:17;;;;;;;10.18;4.40;;;4.40;99.90;;;;;;6216302;23;20199;-61
2022/01/26 05:47:43;;;;;;;10.68;4.90;;;4.40;99.90;;;;;;6216657;23;20125;-60
2022/01/26 05:50:09;;;;;;;11.35;4.93;;;4.40;99.90;;;;;;6216192;23;20207;-62
2022/01/26 05:52:34;;;;;;;12.68;5.07;;;4.40;99.90;;;;;;6216946;23;20156;-62
2022/01/26 05:55:00;;;;;;;9.68;4.90;;;4.40;99.90;;;;;;6216721;23;20412;-61
2022/01/26 05:57:25;;;;;;;11.65;5.20;;;4.40;99.90;;;;;;6216378;23;20171;-62
2022/01/26 05:59:53;;;;;;;9.93;4.22;;;4.50;99.90;;;;;;6216509;23;20149;-62
2022/01/26 06:05:47;;;;;;;12.00;5.00;;;4.40;99.90;;;;;;6216566;23;20147;-62
2022/01/26 06:08:13;;;;;;;8.52;5.07;;;4.50;99.90;;;;;;6216781;23;20168;-62
2022/01/26 06:10:38;;;;;;;9.63;4.72;;;4.50;99.90;;;;;;6216637;23;20145;-62
2022/01/26 06:13:04;;;;;;;10.65;5.20;;;4.50;99.90;;;;;;6216601;23;20155;-62
2022/01/26 06:15:29;;;;;;;12.63;5.88;;;4.50;99.90;;;;;;6216693;23;20149;-62
2022/01/26 06:17:55;;;;;;;10.68;5.18;;;4.50;99.90;;;;;;6217223;23;20467;-62
2022/01/26 06:20:20;;;;;;;10.55;4.93;;;4.50;99.90;;;;;;6216484;23;20600;-62
2022/01/26 06:22:46;;;;;;;12.48;5.57;;;4.50;99.90;;;;;;6217526;23;20149;-62
2022/01/26 06:25:12;;;;;;;10.90;5.45;;;4.50;99.90;;;;;;6217391;23;20152;-61
2022/01/26 06:27:38;;;;;;;9.75;5.22;;;4.50;99.90;;;;;;6217210;23;20148;-62
2022/01/26 06:30:05;;;;;;;10.13;5.70;;;4.50;99.90;;;;;;6217327;23;20572;-62
2022/01/26 06:32:30;;;;;;;11.90;5.32;;;4.50;99.90;;;;;;6191121;23;20144;-62
2022/01/26 06:34:56;;;;;;;10.43;5.05;;;4.50;99.90;;;;;;6215849;23;20195;-62
2022/01/26 06:37:22;;;;;;;10.00;5.25;;;4.40;99.90;;;;;;6190322;23;20141;-62
2022/01/26 06:39:48;;;;;;;12.90;5.97;;;4.40;99.90;;;;;;6215805;23;20141;-61
2022/01/26 06:42:17;;;;;;;11.15;5.72;;;4.40;99.90;;;;;;6215980;23;20145;-62
2022/01/26 06:45:08;;;;;;;10.77;5.60;;;4.40;99.90;;;;;;6216090;23;20218;-61
2022/01/26 06:47:54;;;;;;;13.00;6.22;;;4.40;99.90;;;;;;6215903;23;20486;-62
2022/01/26 06:50:20;;;;;;;12.20;6.10;;;4.40;99.90;;;;;;6217815;23;20426;-63
2022/01/26 06:52:46;;;;;;;10.50;5.78;;;4.40;99.90;;;;;;6218421;23;20172;-62
2022/01/26 06:55:15;;;;;;;13.13;6.90;;;4.40;99.90;;;;;;6218335;23;20144;-63
2022/01/26 06:57:41;;;;;;;12.55;6.43;;;4.40;99.90;;;;;;6218182;23;20149;-62
2022/01/26 07:00:09;;;;;;;11.07;6.47;;;4.40;99.90;;;;;;6217828;23;20145;-62
2022/01/26 07:02:36;;;;;;;11.07;6.70;;;4.40;99.90;;;;;;6218630;23;20189;-62
2022/01/26 07:05:03;;;;;;;11.68;6.15;;;4.40;99.90;;;;;;6217989;23;20418;-62
2022/01/26 07:07:28;;;;;;;12.27;6.30;;;4.40;99.90;;;;;;6218315;23;20442;-61
2022/01/26 07:09:54;;;;;;;14.35;6.95;;;4.40;99.90;;;;;;6217523;23;20212;-62
2022/01/26 07:12:19;;;;;;;12.18;6.65;;;4.40;99.90;;;;;;6217506;23;20168;-61
2022/01/26 07:21:00;;;;;;;11.88;6.13;;;4.40;99.90;;;;;;6217057;23;20191;-61
2022/01/26 07:23:00;;;;;;;12.38;6.63;;;4.40;99.90;;;;;;6217518;23;20148;-62
2022/01/26 07:25:25;;;;;;;14.43;7.03;;;4.40;99.90;;;;;;6217618;23;20137;-63
2022/01/26 07:27:51;;;;;;;11.98;5.80;;;4.40;99.90;;;;;;6217338;23;20141;-65
2022/01/26 07:30:17;;;;;;;13.07;6.22;;;4.40;99.90;;;;;;6216827;23;20581;-63
2022/01/26 07:32:42;;;;;;;13.68;6.20;;;4.50;99.90;;;;;;6216871;23;20152;-65
2022/01/26 07:35:08;;;;;;;15.07;6.80;;;4.50;99.90;;;;;;6217427;23;20494;-64
2022/01/26 07:37:34;;;;;;;13.63;6.53;;;4.40;99.90;;;;;;6217286;23;20233;-65
2022/01/26 07:40:06;;;;;;;12.02;6.47;;;4.40;99.90;;;;;;6217051;23;20544;-65
2022/01/26 07:42:32;;;;;;;14.98;6.97;;;4.40;99.90;;;;;;6217230;23;20541;-65
2022/01/26 07:44:57;;;;;;;13.35;5.57;;;4.40;99.90;;;;;;6217592;23;20145;-64
2022/01/26 07:47:23;;;;;;;16.10;7.00;;;4.40;99.90;;;;;;6217299;23;20240;-64
2022/01/26 07:49:50;;;;;;;14.45;7.18;;;4.30;99.90;;;;;;6217143;23;20145;-64
2022/01/26 07:52:16;;;;;;;14.55;7.18;;;4.30;99.90;;;;;;6217684;23;20235;-65
2022/01/26 07:54:44;;;;;;;15.18;6.97;;;4.30;99.90;;;;;;6217750;23;20226;-64
2022/01/26 07:57:10;;;;;;;15.38;6.72;;;4.40;99.90;;;;;;6217695;23;20149;-65
2022/01/26 07:59:35;;;;;;;18.15;7.30;;;4.30;99.90;;;;;;6217777;23;20141;-65
2022/01/26 08:02:01;;;;;;;17.80;7.28;;;4.40;99.90;;;;;;6217954;23;20176;-65
2022/01/26 08:04:26;;;;;;;17.35;7.60;;;4.40;99.90;;;;;;6217401;23;20224;-64
2022/01/26 08:06:52;;;;;;;16.38;7.25;;;4.30;99.90;;;;;;6217233;23;20159;-63
2022/01/26 08:09:17;;;;;;;15.88;7.18;;;4.30;99.90;;;;;;6217551;23;20141;-63
2022/01/26 08:11:43;;;;;;;14.65;6.90;;;4.30;99.90;;;;;;6217180;23;20163;-61
2022/01/26 08:14:08;;;;;;;18.00;7.13;;;4.30;99.90;;;;;;6217235;23;20567;-61
2022/01/26 08:16:35;;;;;;;16.70;7.93;;;4.30;99.90;;;;;;6217178;23;20207;-61
2022/01/26 08:19:00;;;;;;;15.15;7.18;;;4.30;99.90;;;;;;6217199;23;20160;-61
2022/01/26 08:21:26;;;;;;;16.73;7.38;;;4.30;99.90;;;;;;6217104;23;20463;-61
2022/01/26 08:23:51;;;;;;;14.75;7.57;;;4.30;99.90;;;;;;6216869;23;20152;-61
2022/01/26 08:26:24;;;;;;;15.15;7.35;;;4.30;99.90;;;;;;6217225;23;20545;-61
2022/01/26 08:28:54;;;;;;;18.13;8.05;;;4.30;99.90;;;;;;6217071;23;20125;-61
2022/01/26 08:31:20;;;;;;;16.60;6.93;;;4.30;99.90;;;;;;6217004;23;20137;-61
2022/01/26 08:33:46;;;;;;;16.35;7.45;;;4.20;99.90;;;;;;6216958;23;20152;-61
2022/01/26 08:36:11;;;;;;;16.58;7.65;;;4.30;99.90;;;;;;6217051;23;20145;-61
2022/01/26 08:38:37;;;;;;;17.30;8.02;;;4.30;99.90;;;;;;6216761;23;20572;-61
2022/01/26 08:41:03;;;;;;;17.00;7.70;;;4.30;99.90;;;;;;6216826;23;20172;-62
2022/01/26 08:43:28;;;;;;;15.77;7.55;;;4.30;99.90;;;;;;6216856;23;20181;-62
2022/01/26 08:45:54;;;;;;;18.42;8.55;;;4.30;99.90;;;;;;6216693;23;20213;-62
2022/01/26 08:48:20;;;;;;;17.40;8.43;;;4.30;99.90;;;;;;6216796;23;20145;-63
2022/01/26 08:50:45;;;;;;;17.17;7.90;;;4.30;99.90;;;;;;6216861;23;20153;-61
2022/01/26 08:53:11;;;;;;;22.20;8.63;;;4.30;99.90;;;;;;6217217;23;20549;-61
2022/01/26 08:55:36;;;;;;;17.83;7.75;;;4.30;99.90;;;;;;6216686;23;20144;-61
2022/01/26 08:58:03;;;;;;;16.67;8.13;;;4.30;99.90;;;;;;6217207;23;20207;-62
2022/01/26 09:00:29;;;;;;;15.88;8.05;;;4.30;99.90;;;;;;6216444;23;20165;-61
2022/01/26 09:02:55;;;;;;;20.33;8.20;;;4.30;99.90;;;;;;6216483;23;20152;-60
2022/01/26 09:05:20;;;;;;;18.77;8.20;;;4.30;99.90;;;;;;6216328;23;20149;-62
2022/01/26 09:07:49;;;;;;;15.63;7.30;;;4.30;99.90;;;;;;6216464;23;20576;-60
2022/01/26 09:10:14;;;;;;;18.38;8.50;;;4.20;99.90;;;;;;6216744;23;20163;-62
2022/01/26 09:12:43;;;;;;;19.08;8.15;;;4.20;99.90;;;;;;6215948;23;20145;-61
2022/01/26 09:15:09;;;;;;;17.10;7.60;;;4.20;99.90;;;;;;6216405;23;20450;-63
2022/01/26 09:17:35;;;;;;;17.80;7.70;;;4.20;99.90;;;;;;6216778;23;20158;-59
2022/01/26 09:20:03;;;;;;;19.40;7.93;;;4.20;99.90;;;;;;6216432;23;20161;-62
2022/01/26 09:22:28;;;;;;;21.50;8.55;;;4.20;99.90;;;;;;6217065;23;20141;-62
2022/01/26 09:24:54;;;;;;;17.75;9.18;;;4.20;99.90;;;;;;6217016;23;20145;-62
2022/01/26 09:27:19;;;;;;;17.20;8.88;;;4.20;99.90;;;;;;6216705;23;20159;-61
2022/01/26 09:29:46;;;;;;;17.30;8.20;;;4.20;99.90;;;;;;6216205;23;20562;-62
2022/01/26 09:32:13;;;;;;;19.08;8.45;;;4.20;99.90;;;;;;6216235;23;20148;-61
2022/01/26 09:34:40;;;;;;;17.48;8.98;;;4.30;99.90;;;;;;6216341;23;20547;-61
2022/01/26 09:37:07;;;;;;;16.52;7.90;;;4.30;99.90;;;;;;6216232;23;20146;-61
2022/01/26 09:39:33;;;;;;;21.27;9.25;;;4.30;99.90;;;;;;6216555;23;20144;-61
2022/01/26 09:41:58;;;;;;;18.67;8.23;;;4.30;99.90;;;;;;6216128;23;20426;-62
2022/01/26 09:44:24;;;;;;;17.45;8.75;;;4.30;99.90;;;;;;6189893;23;20168;-62
2022/01/26 09:46:50;;;;;;;18.20;8.80;;;4.30;99.90;;;;;;6216091;23;20155;-61
2022/01/26 09:49:17;;;;;;;20.45;9.27;;;4.20;99.90;;;;;;6216552;23;20179;-61
2022/01/26 09:51:47;;;;;;;23.45;9.63;;;4.20;99.90;;;;;;6216350;23;20180;-61
2022/01/26 09:54:15;;;;;;;24.17;9.55;;;4.30;99.90;;;;;;6216483;23;20125;-62
2022/01/26 09:56:42;;;;;;;20.35;9.55;;;4.30;99.90;;;;;;6216356;23;20149;-62
2022/01/26 09:59:08;;;;;;;22.67;10.43;;;4.40;99.90;;;;;;6216250;23;20144;-61
2022/01/26 10:02:00;;;;;;;19.52;9.48;;;4.30;99.90;;;;;;6216031;23;20168;-61
2022/01/26 10:04:29;;;;;;;21.48;9.52;;;4.30;99.90;;;;;;6210769;23;20206;-61
2022/01/26 10:07:30;;;;;;;22.23;10.35;;;4.30;99.90;;;;;;6190101;23;20167;-62
2022/01/26 10:10:31;;;;;;;19.58;9.38;;;4.30;99.90;;;;;;6215935;23;20125;-61
2022/01/26 10:15:37;;;;;;;20.23;9.43;;;4.30;99.90;;;;;;6216181;23;20430;-61
2022/01/26 10:18:13;;;;;;;22.20;10.82;;;4.20;99.90;;;;;;6216018;23;20444;-62
2022/01/26 10:20:48;;;;;;;23.48;10.55;;;4.20;99.90;;;;;;6215657;23;20176;-62
2022/01/26 10:23:17;;;;;;;24.30;11.02;;;4.20;99.90;;;;;;6216962;23;20143;-62
2022/01/26 10:26:03;;;;;;;21.85;10.55;;;4.20;99.90;;;;;;6219385;23;20161;-60
2022/01/26 10:28:55;;;;;;;24.33;11.10;;;4.20;99.90;;;;;;6193054;23;20220;-60
2022/01/26 10:31:21;;;;;;;24.10;10.85;;;4.20;99.90;;;;;;6219228;23;20179;-64
2022/01/26 10:34:04;;;;;;;23.75;10.32;;;4.20;99.90;;;;;;6219307;23;20149;-61
2022/01/26 10:36:43;;;;;;;21.80;10.50;;;4.20;99.90;;;;;;6219487;23;20147;-62
2022/01/26 10:39:26;;;;;;;19.23;9.88;;;4.20;99.90;;;;;;6193497;23;20154;-61
2022/01/26 10:41:55;;;;;;;22.80;10.35;;;4.20;99.90;;;;;;6219307;23;20468;-61
2022/01/26 10:44:29;;;;;;;21.00;10.45;;;4.20;99.90;;;;;;6194076;23;20141;-63
2022/01/26 10:46:58;;;;;;;23.10;11.30;;;4.10;99.90;;;;;;6219409;23;20167;-63
2022/01/26 10:49:43;;;;;;;22.20;11.13;;;4.20;99.90;;;;;;6194010;23;20151;-61
2022/01/26 10:52:38;;;;;;;23.85;10.82;;;4.20;99.90;;;;;;6218971;23;20533;-62
2022/01/26 10:55:06;;;;;;;23.50;10.45;;;4.20;99.90;;;;;;6219506;23;20211;-61
2022/01/26 10:57:31;;;;;;;26.00;10.30;;;4.20;99.90;;;;;;6219791;23;20149;-61
2022/01/26 10:59:57;;;;;;;22.83;11.30;;;4.10;99.90;;;;;;6219320;23;20187;-61
2022/01/26 11:02:31;;;;;;;25.20;11.20;;;4.20;99.90;;;;;;6219251;23;20137;-61
2022/01/26 11:04:57;;;;;;;19.92;10.30;;;4.10;99.90;;;;;;6219584;23;20601;-62
2022/01/26 11:07:38;;;;;;;26.10;12.07;;;4.10;99.90;;;;;;6218821;23;20137;-61
2022/01/26 11:10:06;;;;;;;25.35;11.30;;;4.10;99.90;;;;;;6219712;23;20129;-61
2022/01/26 11:12:32;;;;;;;22.98;10.65;;;4.10;99.90;;;;;;6219685;23;20145;-60
2022/01/26 11:15:08;;;;;;;25.25;12.27;;;4.00;99.90;;;;;;6219455;23;20141;-60
2022/01/26 11:17:37;;;;;;;26.33;12.18;;;4.10;99.90;;;;;;6219459;23;20125;-60
2022/01/26 11:20:34;;;;;;;26.50;11.60;;;4.10;99.90;;;;;;6219217;23;20514;-61
2022/01/26 11:23:02;;;;;;;23.38;10.18;;;4.10;99.90;;;;;;6219404;23;20164;-60
2022/01/26 11:25:30;;;;;;;23.85;11.00;;;4.10;99.90;;;;;;6219667;23;20223;-62
2022/01/26 11:27:56;;;;;;;25.42;11.77;;;4.10;99.90;;;;;;6219075;23;20145;-60
2022/01/26 11:30:31;;;;;;;24.15;10.25;;;4.10;99.90;;;;;;6219424;23;20494;-61
2022/01/26 11:32:58;;;;;;;24.55;11.38;;;4.10;99.90;;;;;;6219025;23;20560;-62
2022/01/26 11:35:26;;;;;;;23.92;10.90;;;4.20;99.90;;;;;;6217708;23;20176;-62
2022/01/26 11:38:16;;;;;;;26.23;12.73;;;4.20;99.90;;;;;;6217568;23;20153;-62
2022/01/26 11:46:30;;;;;;;27.65;13.65;;;4.20;99.90;;;;;;6217473;23;20136;-62
2022/01/26 11:49:08;;;;;;;29.58;12.75;;;4.20;99.90;;;;;;6216968;23;20500;-62
2022/01/26 11:51:47;;;;;;;30.42;12.90;;;4.20;99.90;;;;;;6217130;23;20533;-62
2022/01/26 11:54:19;;;;;;;27.33;12.43;;;4.20;99.90;;;;;;6217534;23;20153;-62
2022/01/26 11:57:09;;;;;;;30.85;13.18;;;4.20;99.90;;;;;;6217528;23;20130;-62
2022/01/26 11:59:41;;;;;;;25.80;11.57;;;4.20;99.90;;;;;;6217069;23;20194;-62
2022/01/26 12:02:36;;;;;;;28.52;13.10;;;4.20;99.90;;;;;;6217373;23;20188;-62
2022/01/26 12:05:06;;;;;;;28.50;13.10;;;4.20;99.90;;;;;;6217520;23;20517;-62
2022/01/26 12:07:31;;;;;;;25.85;13.52;;;4.20;99.90;;;;;;6217495;23;20145;-62
2022/01/26 12:09:57;;;;;;;29.95;11.95;;;4.30;99.90;;;;;;6217224;23;20141;-62
2022/01/26 12:12:24;;;;;;;26.25;13.25;;;4.30;99.90;;;;;;6217156;23;20467;-62
2022/01/26 12:15:04;;;;;;;30.13;13.35;;;4.40;99.90;;;;;;6217506;23;20499;-62
2022/01/26 12:17:35;;;;;;;28.35;12.02;;;4.40;99.90;;;;;;6217321;23;20142;-61
2022/01/26 12:32:04;;;;;;;27.75;12.57;;;4.40;99.90;;;;;;6216920;23;20462;-61
2022/01/26 12:34:35;;;;;;;34.92;14.60;;;4.40;99.90;;;;;;6217071;23;20144;-62
2022/01/26 12:37:12;;;;;;;28.38;13.35;;;4.40;99.90;;;;;;6217032;23;20130;-62
2022/01/26 12:45:25;;;;;;;29.92;13.02;;;4.40;99.90;;;;;;6216888;23;20139;-61
2022/01/26 12:47:52;;;;;;;24.58;12.57;;;4.40;99.90;;;;;;6216032;23;20139;-61
2022/01/26 12:50:19;;;;;;;28.77;13.27;;;4.40;99.90;;;;;;6216675;23;20157;-61
2022/01/26 12:52:49;;;;;;;27.25;12.07;;;4.30;99.90;;;;;;6215238;23;20151;-62
2022/01/26 12:55:30;;;;;;;27.17;12.55;;;4.30;99.90;;;;;;6216922;23;20129;-61
2022/01/26 12:57:56;;;;;;;26.23;12.23;;;4.30;99.90;;;;;;6216793;23;20160;-61
2022/01/26 13:00:24;;;;;;;27.75;12.88;;;4.30;99.90;;;;;;6216868;23;20220;-61
2022/01/26 13:02:51;;;;;;;29.27;13.02;;;4.30;99.90;;;;;;6191075;23;20175;-62
2022/01/26 13:05:22;;;;;;;23.95;11.93;;;4.20;99.90;;;;;;6216387;23;20141;-61
2022/01/26 13:07:59;;;;;;;33.67;14.10;;;4.20;99.90;;;;;;6216758;23;20140;-62
2022/01/26 13:10:24;;;;;;;28.42;13.02;;;4.10;99.90;;;;;;6216426;23;20236;-60
2022/01/26 13:12:50;;;;;;;26.85;11.85;;;4.10;99.90;;;;;;6216558;23;20485;-62
2022/01/26 13:15:25;;;;;;;30.13;12.30;;;4.10;99.90;;;;;;6190112;23;20223;-62
2022/01/26 13:17:57;;;;;;;30.23;13.20;;;4.10;99.90;;;;;;6216909;23;20159;-62
2022/01/26 13:23:31;;;;;;;27.90;11.93;;;4.10;99.90;;;;;;6216712;23;20145;-62
2022/01/26 13:26:29;;;;;;;30.02;13.25;;;4.10;99.90;;;;;;6216774;23;20168;-62
2022/01/26 13:29:14;;;;;;;26.35;11.23;;;4.10;99.90;;;;;;6215011;23;20141;-62
2022/01/26 13:32:09;;;;;;;32.45;12.80;;;4.10;99.90;;;;;;6216378;23;20126;-62
2022/01/26 13:34:54;;;;;;;32.47;13.02;;;4.20;99.90;;;;;;6216126;23;20148;-62
2022/01/26 13:37:35;;;;;;;29.88;12.75;;;4.20;99.90;;;;;;6216873;23;20137;-61
2022/01/26 13:56:55;;;;;;;27.98;11.75;;;4.00;99.90;;;;;;6153739;23;20146;-61
2022/01/26 14:01:50;;;;;;;28.92;11.93;;;4.00;99.90;;;;;;6154015;23;20168;-61
2022/01/26 14:04:17;;;;;;;26.88;11.73;;;4.00;99.90;;;;;;6154037;23;20147;-62
2022/01/26 14:06:43;;;;;;;29.60;11.13;;;4.00;99.90;;;;;;6153894;23;20181;-62
2022/01/26 14:09:08;;;;;;;28.15;11.63;;;4.00;99.90;;;;;;6153862;23;20266;-62
2022/01/26 14:11:34;;;;;;;25.63;11.50;;;4.00;99.90;;;;;;6154216;23;20177;-62
2022/01/26 14:14:00;;;;;;;25.75;11.10;;;4.00;99.90;;;;;;6154148;23;20158;-62
2022/01/26 14:16:28;;;;;;;27.17;11.95;;;4.10;99.90;;;;;;6154113;23;20474;-61
2022/01/26 14:19:06;;;;;;;27.27;11.23;;;4.10;99.90;;;;;;6153760;23;20158;-63
2022/01/26 14:26:28;;;;;;;28.02;11.50;;;4.20;99.90;;;;;;6153876;23;20174;-65
2022/01/26 14:28:54;;;;;;;24.23;11.63;;;4.10;99.90;;;;;;6174711;23;20153;-63
2022/01/26 14:31:28;;;;;;;26.05;11.57;;;4.10;99.90;;;;;;6215913;23;20503;-64
2022/01/26 14:34:20;;;;;;;26.70;10.98;;;4.10;99.90;;;;;;6216495;23;20125;-62
2022/01/26 14:36:50;;;;;;;28.65;11.57;;;4.20;99.90;;;;;;6215681;23;20149;-65
2022/01/26 15:00:00;;;;;;;31.40;11.52;;;4.10;99.90;;;;;;6153774;23;20228;-65
2022/01/26 15:42:40;;;;;;;31.67;11.88;;;4.00;99.90;;;;;;6217358;23;20188;-65
2022/01/26 15:51:01;;;;;;;32.30;12.68;;;4.00;99.90;;;;;;6217283;23;20401;-65
2022/01/26 15:59:03;;;;;;;34.95;13.52;;;3.90;99.90;;;;;;6217183;23;20136;-65
2022/01/26 16:35:09;;;;;;;33.75;13.88;;;3.90;99.90;;;;;;6216833;23;20139;-65
2022/01/26 16:52:31;;;;;;;42.00;15.20;;;3.90;99.90;;;;;;6217108;23;20451;-64
2022/01/26 17:11:11;;;;;;;43.05;15.68;;;3.90;99.90;;;;;;6216505;23;20144;-64
2022/01/26 17:46:42;;;;;;;46.55;16.80;;;4.00;99.90;;;;;;6216439;23;20136;-65
2022/01/26 17:47:05;;;;;;;44.90;15.95;;;4.00;99.90;;;;;;6216107;23;20140;-63